createdAt,value
2017-07-21T00:00:37.362Z,1002.0
2017-07-21T00:01:38.762Z,1002.0
2017-07-21T00:02:40.159Z,1002.0
2017-07-21T00:03:41.556Z,1002.0
2017-07-21T00:04:42.956Z,1002.0
2017-07-21T00:05:44.383Z,1002.0
2017-07-21T00:06:45.750Z,1002.0
2017-07-21T00:07:47.153Z,1002.1
2017-07-21T00:08:48.551Z,1002.1
2017-07-21T00:09:49.951Z,1002.0
2017-07-21T00:10:51.350Z,1002.0
2017-07-21T00:11:52.746Z,1002.0
2017-07-21T00:12:54.146Z,1002.0
2017-07-21T00:13:55.545Z,1002.0
2017-07-21T00:14:56.938Z,1002.0
2017-07-21T00:15:58.338Z,1002.0
2017-07-21T00:16:59.736Z,1002.0
2017-07-21T00:18:01.134Z,1002.0
2017-07-21T00:19:02.534Z,1002.0
2017-07-21T00:20:03.934Z,1002.0
2017-07-21T00:21:05.335Z,1001.9
2017-07-21T00:22:06.728Z,1001.9
2017-07-21T00:23:08.138Z,1001.9
2017-07-21T00:24:09.541Z,1002.0
2017-07-21T00:25:10.938Z,1001.9
2017-07-21T00:26:12.337Z,1002.0
2017-07-21T00:27:13.735Z,1002.0
2017-07-21T00:28:15.135Z,1002.0
2017-07-21T00:29:16.532Z,1002.1
2017-07-21T00:30:17.938Z,1002.0
2017-07-21T00:31:19.343Z,1002.0
2017-07-21T00:32:20.743Z,1002.0
2017-07-21T00:33:22.150Z,1002.0
2017-07-21T00:34:23.557Z,1002.0
2017-07-21T00:35:24.957Z,1002.0
2017-07-21T00:36:26.354Z,1002.0
2017-07-21T00:37:27.756Z,1002.1
2017-07-21T00:38:29.160Z,1002.1
2017-07-21T00:39:30.557Z,1002.1
2017-07-21T00:40:31.955Z,1002.1
2017-07-21T00:41:33.357Z,1002.1
2017-07-21T00:42:34.761Z,1002.1
2017-07-21T00:43:36.156Z,1002.0
2017-07-21T00:44:37.555Z,1002.1
2017-07-21T00:45:38.954Z,1002.1
2017-07-21T00:46:40.352Z,1002.1
2017-07-21T00:47:41.747Z,1002.1
2017-07-21T00:48:43.149Z,1002.0
2017-07-21T00:49:44.544Z,1002.1
2017-07-21T00:50:45.944Z,1002.0
2017-07-21T00:51:47.368Z,1002.0
2017-07-21T00:52:48.765Z,1002.0
2017-07-21T00:53:50.164Z,1002.0
2017-07-21T00:54:51.566Z,1002.0
2017-07-21T00:55:52.958Z,1002.0
2017-07-21T00:56:54.360Z,1002.0
2017-07-21T00:57:55.766Z,1002.0
2017-07-21T00:58:57.197Z,1002.0
2017-07-21T00:59:58.597Z,1002.0
2017-07-21T01:00:59.993Z,1002.0
2017-07-21T01:02:01.392Z,1002.0
2017-07-21T01:03:02.789Z,1002.0
2017-07-21T01:04:04.188Z,1002.0
2017-07-21T01:05:05.587Z,1002.0
2017-07-21T01:06:06.989Z,1002.0
2017-07-21T01:07:08.393Z,1002.0
2017-07-21T01:08:09.785Z,1002.0
2017-07-21T01:09:11.184Z,1002.0
2017-07-21T01:10:12.581Z,1002.1
2017-07-21T01:11:13.979Z,1002.1
2017-07-21T01:12:15.377Z,1002.1
2017-07-21T01:13:16.775Z,1002.1
2017-07-21T01:14:18.180Z,1002.1
2017-07-21T01:15:19.574Z,1002.1
2017-07-21T01:16:20.974Z,1002.1
2017-07-21T01:17:22.400Z,1002.1
2017-07-21T01:18:23.800Z,1002.1
2017-07-21T01:19:25.200Z,1002.2
2017-07-21T01:20:26.609Z,1002.1
2017-07-21T01:21:28.004Z,1002.2
2017-07-21T01:22:29.400Z,1002.1
2017-07-21T01:23:30.798Z,1002.1
2017-07-21T01:24:32.196Z,1002.1
2017-07-21T01:25:33.595Z,1002.1
2017-07-21T01:26:35.006Z,1002.0
2017-07-21T01:27:36.403Z,1002.1
2017-07-21T01:28:37.804Z,1002.1
2017-07-21T01:29:39.197Z,1002.1
2017-07-21T01:30:40.594Z,1002.1
2017-07-21T01:31:41.996Z,1002.1
2017-07-21T01:32:43.391Z,1002.1
2017-07-21T01:33:44.793Z,1002.1
2017-07-21T01:34:46.190Z,1002.1
2017-07-21T01:35:47.588Z,1002.1
2017-07-21T01:36:48.987Z,1002.1
2017-07-21T01:37:50.389Z,1002.1
2017-07-21T01:38:51.781Z,1002.1
2017-07-21T01:39:53.178Z,1002.1
2017-07-21T01:40:54.577Z,1002.1
2017-07-21T01:41:55.980Z,1002.1
2017-07-21T01:42:57.379Z,1002.1
2017-07-21T01:43:58.775Z,1002.1
2017-07-21T01:45:00.171Z,1002.1
2017-07-21T01:46:01.569Z,1002.1
2017-07-21T01:47:02.980Z,1002.0
2017-07-21T01:48:04.382Z,1002.0
2017-07-21T01:49:05.782Z,1002.0
2017-07-21T01:50:07.201Z,1002.1
2017-07-21T01:51:08.596Z,1002.0
2017-07-21T01:52:09.992Z,1002.0
2017-07-21T01:53:11.388Z,1001.9
2017-07-21T01:54:12.787Z,1002.0
2017-07-21T01:55:14.180Z,1002.0
2017-07-21T01:56:15.583Z,1002.0
2017-07-21T01:57:16.986Z,1002.0
2017-07-21T01:58:18.382Z,1002.0
2017-07-21T01:59:19.779Z,1002.0
2017-07-21T02:00:21.189Z,1002.0
2017-07-21T02:01:22.589Z,1002.0
2017-07-21T02:02:23.986Z,1002.0
2017-07-21T02:03:25.385Z,1002.0
2017-07-21T02:04:26.786Z,1002.0
2017-07-21T02:05:28.181Z,1002.0
2017-07-21T02:06:29.593Z,1002.1
2017-07-21T02:07:30.980Z,1002.1
2017-07-21T02:08:32.377Z,1002.1
2017-07-21T02:09:33.774Z,1002.0
2017-07-21T02:10:35.174Z,1002.0
2017-07-21T02:11:36.579Z,1002.0
2017-07-21T02:12:37.974Z,1002.0
2017-07-21T02:13:39.374Z,1002.0
2017-07-21T02:14:40.776Z,1002.0
2017-07-21T02:15:42.172Z,1002.0
2017-07-21T02:16:43.580Z,1002.0
2017-07-21T02:17:44.976Z,1002.0
2017-07-21T02:18:46.380Z,1002.0
2017-07-21T02:19:47.798Z,1002.0
2017-07-21T02:20:49.185Z,1002.0
2017-07-21T02:21:50.581Z,1002.0
2017-07-21T02:22:51.989Z,1002.0
2017-07-21T02:23:53.392Z,1002.0
2017-07-21T02:24:54.793Z,1002.0
2017-07-21T02:25:56.199Z,1002.0
2017-07-21T02:26:57.589Z,1002.0
2017-07-21T02:27:58.981Z,1002.0
2017-07-21T02:29:00.382Z,1002.0
2017-07-21T02:30:01.779Z,1002.0
2017-07-21T02:31:03.179Z,1002.0
2017-07-21T02:32:04.579Z,1002.0
2017-07-21T02:33:05.979Z,1002.1
2017-07-21T02:34:07.374Z,1002.1
2017-07-21T02:35:08.773Z,1002.1
2017-07-21T02:36:10.170Z,1002.1
2017-07-21T02:37:11.565Z,1002.0
2017-07-21T02:38:12.967Z,1002.0
2017-07-21T02:39:14.365Z,1002.0
2017-07-21T02:40:15.769Z,1002.0
2017-07-21T02:41:17.165Z,1002.0
2017-07-21T02:42:18.562Z,1002.0
2017-07-21T02:43:19.957Z,1002.0
2017-07-21T02:44:21.362Z,1002.0
2017-07-21T02:45:22.755Z,1002.0
2017-07-21T02:46:24.152Z,1002.0
2017-07-21T02:47:25.557Z,1002.0
2017-07-21T02:48:26.955Z,1002.0
2017-07-21T02:49:28.349Z,1002.1
2017-07-21T02:50:29.744Z,1002.1
2017-07-21T02:51:31.141Z,1002.1
2017-07-21T02:52:32.545Z,1002.0
2017-07-21T02:53:33.943Z,1002.0
2017-07-21T02:54:35.343Z,1002.0
2017-07-21T02:55:36.741Z,1002.0
2017-07-21T02:56:38.134Z,1002.0
2017-07-21T02:57:39.531Z,1002.1
2017-07-21T02:58:40.926Z,1002.0
2017-07-21T02:59:42.329Z,1002.1
2017-07-21T03:00:43.728Z,1002.0
2017-07-21T03:01:45.137Z,1002.0
2017-07-21T03:02:46.536Z,1002.0
2017-07-21T03:03:47.939Z,1002.0
2017-07-21T03:04:49.336Z,1002.0
2017-07-21T03:05:50.733Z,1002.0
2017-07-21T03:06:52.127Z,1002.0
2017-07-21T03:07:53.528Z,1002.1
2017-07-21T03:08:54.926Z,1002.1
2017-07-21T03:09:56.323Z,1002.1
2017-07-21T03:10:57.719Z,1002.1
2017-07-21T03:11:59.119Z,1002.1
2017-07-21T03:13:00.517Z,1002.1
2017-07-21T03:14:01.925Z,1002.1
2017-07-21T03:15:03.325Z,1002.1
2017-07-21T03:16:04.723Z,1002.1
2017-07-21T03:17:06.119Z,1002.1
2017-07-21T03:18:07.515Z,1002.1
2017-07-21T03:19:08.913Z,1002.1
2017-07-21T03:20:10.319Z,1002.1
2017-07-21T03:21:11.711Z,1002.1
2017-07-21T03:22:13.107Z,1002.1
2017-07-21T03:23:14.506Z,1002.1
2017-07-21T03:24:15.903Z,1002.1
2017-07-21T03:25:17.300Z,1002.1
2017-07-21T03:26:18.699Z,1002.2
2017-07-21T03:27:20.157Z,1002.1
2017-07-21T03:28:21.556Z,1002.2
2017-07-21T03:29:22.968Z,1002.2
2017-07-21T03:30:24.367Z,1002.2
2017-07-21T03:31:25.764Z,1002.2
2017-07-21T03:32:27.162Z,1002.2
2017-07-21T03:33:28.560Z,1002.1
2017-07-21T03:34:29.956Z,1002.2
2017-07-21T03:35:31.359Z,1002.1
2017-07-21T03:36:32.759Z,1002.2
2017-07-21T03:37:34.158Z,1002.2
2017-07-21T03:38:35.555Z,1002.2
2017-07-21T03:39:36.953Z,1002.2
2017-07-21T03:40:38.353Z,1002.2
2017-07-21T03:41:39.753Z,1002.2
2017-07-21T03:42:41.153Z,1002.2
2017-07-21T03:43:42.563Z,1002.2
2017-07-21T03:44:43.965Z,1002.2
2017-07-21T03:45:45.371Z,1002.2
2017-07-21T03:46:46.769Z,1002.3
2017-07-21T03:47:48.168Z,1002.3
2017-07-21T03:48:49.572Z,1002.2
2017-07-21T03:49:50.973Z,1002.1
2017-07-21T03:50:52.383Z,1002.2
2017-07-21T03:51:53.835Z,1002.2
2017-07-21T03:52:55.231Z,1002.2
2017-07-21T03:53:56.630Z,1002.2
2017-07-21T03:54:58.036Z,1002.2
2017-07-21T03:55:59.438Z,1002.2
2017-07-21T03:57:00.843Z,1002.2
2017-07-21T03:58:02.237Z,1002.2
2017-07-21T03:59:03.643Z,1002.2
2017-07-21T04:00:05.051Z,1002.2
2017-07-21T04:01:06.449Z,1002.2
2017-07-21T04:02:07.854Z,1002.2
2017-07-21T04:03:09.253Z,1002.2
2017-07-21T04:04:10.657Z,1002.2
2017-07-21T04:05:12.108Z,1002.2
2017-07-21T04:06:13.501Z,1002.2
2017-07-21T04:07:14.918Z,1002.2
2017-07-21T04:08:16.380Z,1002.2
2017-07-21T04:09:17.954Z,1002.2
2017-07-21T04:10:19.386Z,1002.2
2017-07-21T04:11:20.808Z,1002.2
2017-07-21T04:12:22.356Z,1002.2
2017-07-21T04:13:23.846Z,1002.2
2017-07-21T04:14:25.289Z,1002.2
2017-07-21T04:15:26.690Z,1002.2
2017-07-21T04:16:28.109Z,1002.2
2017-07-21T04:17:29.488Z,1002.1
2017-07-21T04:18:30.886Z,1002.2
2017-07-21T04:19:32.288Z,1002.1
2017-07-21T04:20:33.702Z,1002.2
2017-07-21T04:21:35.105Z,1002.1
2017-07-21T04:22:36.536Z,1002.2
2017-07-21T04:23:37.952Z,1002.2
2017-07-21T04:24:39.352Z,1002.2
2017-07-21T04:25:40.756Z,1002.1
2017-07-21T04:26:42.156Z,1002.2
2017-07-21T04:27:43.556Z,1002.2
2017-07-21T04:28:45.012Z,1002.2
2017-07-21T04:29:46.415Z,1002.2
2017-07-21T04:30:47.813Z,1002.2
2017-07-21T04:31:49.262Z,1002.2
2017-07-21T04:32:50.668Z,1002.2
2017-07-21T04:33:52.071Z,1002.2
2017-07-21T04:34:53.473Z,1002.2
2017-07-21T04:35:54.876Z,1002.3
2017-07-21T04:36:56.272Z,1002.3
2017-07-21T04:37:57.674Z,1002.3
2017-07-21T04:38:59.072Z,1002.3
2017-07-21T04:40:00.475Z,1002.3
2017-07-21T04:41:01.946Z,1002.3
2017-07-21T04:42:03.349Z,1002.3
2017-07-21T04:43:04.816Z,1002.3
2017-07-21T04:44:06.215Z,1002.3
2017-07-21T04:45:07.612Z,1002.4
2017-07-21T04:46:09.010Z,1002.3
2017-07-21T04:47:10.412Z,1002.3
2017-07-21T04:48:11.835Z,1002.3
2017-07-21T04:49:13.219Z,1002.3
2017-07-21T04:50:14.617Z,1002.3
2017-07-21T04:51:16.016Z,1002.3
2017-07-21T04:52:17.418Z,1002.3
2017-07-21T04:53:18.822Z,1002.4
2017-07-21T04:54:20.223Z,1002.3
2017-07-21T04:55:21.624Z,1002.3
2017-07-21T04:56:23.036Z,1002.4
2017-07-21T04:57:24.437Z,1002.4
2017-07-21T04:58:25.845Z,1002.3
2017-07-21T04:59:27.244Z,1002.4
2017-07-21T05:00:28.647Z,1002.3
2017-07-21T05:01:30.049Z,1002.3
2017-07-21T05:02:31.450Z,1002.3
2017-07-21T05:03:32.852Z,1002.3
2017-07-21T05:04:34.253Z,1002.3
2017-07-21T05:05:35.652Z,1002.3
2017-07-21T05:06:37.061Z,1002.3
2017-07-21T05:07:38.547Z,1002.3
2017-07-21T05:08:39.955Z,1002.3
2017-07-21T05:09:41.359Z,1002.3
2017-07-21T05:10:42.758Z,1002.3
2017-07-21T05:11:44.233Z,1002.3
2017-07-21T05:12:45.695Z,1002.4
2017-07-21T05:13:47.105Z,1002.3
2017-07-21T05:14:48.508Z,1002.4
2017-07-21T05:15:49.906Z,1002.4
2017-07-21T05:16:51.311Z,1002.4
2017-07-21T05:17:52.716Z,1002.3
2017-07-21T05:18:54.113Z,1002.3
2017-07-21T05:19:55.512Z,1002.3
2017-07-21T05:20:56.911Z,1002.3
2017-07-21T05:21:58.313Z,1002.4
2017-07-21T05:22:59.770Z,1002.3
2017-07-21T05:24:01.172Z,1002.3
2017-07-21T05:25:02.576Z,1002.3
2017-07-21T05:26:03.974Z,1002.3
2017-07-21T05:27:05.369Z,1002.3
2017-07-21T05:28:06.776Z,1002.3
2017-07-21T05:29:08.175Z,1002.3
2017-07-21T05:30:09.577Z,1002.3
2017-07-21T05:31:10.981Z,1002.3
2017-07-21T05:32:12.378Z,1002.3
2017-07-21T05:33:13.777Z,1002.3
2017-07-21T05:34:15.179Z,1002.3
2017-07-21T05:35:16.583Z,1002.3
2017-07-21T05:36:17.994Z,1002.2
2017-07-21T05:37:19.395Z,1002.3
2017-07-21T05:38:20.800Z,1002.3
2017-07-21T05:39:22.203Z,1002.3
2017-07-21T05:40:23.600Z,1002.2
2017-07-21T05:41:25.000Z,1002.3
2017-07-21T05:42:26.407Z,1002.3
2017-07-21T05:43:27.812Z,1002.3
2017-07-21T05:44:29.216Z,1002.2
2017-07-21T05:45:30.616Z,1002.3
2017-07-21T05:46:32.023Z,1002.3
2017-07-21T05:47:33.420Z,1002.3
2017-07-21T05:48:34.824Z,1002.3
2017-07-21T05:49:36.229Z,1002.4
2017-07-21T05:50:37.648Z,1002.3
2017-07-21T05:51:39.042Z,1002.3
2017-07-21T05:52:40.445Z,1002.3
2017-07-21T05:53:41.852Z,1002.3
2017-07-21T05:54:43.251Z,1002.3
2017-07-21T05:55:44.654Z,1002.4
2017-07-21T05:56:46.700Z,1002.4
2017-07-21T05:57:48.097Z,1002.4
2017-07-21T05:58:49.498Z,1002.4
2017-07-21T05:59:50.900Z,1002.3
2017-07-21T06:00:52.305Z,1002.4
2017-07-21T06:01:53.708Z,1002.4
2017-07-21T06:02:55.120Z,1002.4
2017-07-21T06:03:56.518Z,1002.4
2017-07-21T06:04:57.922Z,1002.4
2017-07-21T06:05:59.329Z,1002.4
2017-07-21T06:07:00.729Z,1002.4
2017-07-21T06:08:02.138Z,1002.4
2017-07-21T06:09:03.527Z,1002.4
2017-07-21T06:10:04.937Z,1002.4
2017-07-21T06:11:06.338Z,1002.4
2017-07-21T06:12:07.740Z,1002.4
2017-07-21T06:13:09.147Z,1002.4
2017-07-21T06:14:10.554Z,1002.4
2017-07-21T06:15:11.958Z,1002.4
2017-07-21T06:16:13.364Z,1002.4
2017-07-21T06:17:14.770Z,1002.4
2017-07-21T06:18:16.169Z,1002.4
2017-07-21T06:19:17.576Z,1002.5
2017-07-21T06:20:18.985Z,1002.5
2017-07-21T06:21:20.391Z,1002.5
2017-07-21T06:22:21.797Z,1002.5
2017-07-21T06:23:23.200Z,1002.5
2017-07-21T06:24:24.606Z,1002.5
2017-07-21T06:25:26.017Z,1002.5
2017-07-21T06:26:27.424Z,1002.5
2017-07-21T06:27:28.828Z,1002.5
2017-07-21T06:28:30.230Z,1002.4
2017-07-21T06:29:31.649Z,1002.5
2017-07-21T06:30:33.039Z,1002.5
2017-07-21T06:31:34.450Z,1002.5
2017-07-21T06:32:35.861Z,1002.4
2017-07-21T06:33:37.265Z,1002.5
2017-07-21T06:34:38.665Z,1002.5
2017-07-21T06:35:40.070Z,1002.5
2017-07-21T06:36:41.476Z,1002.5
2017-07-21T06:37:42.877Z,1002.5
2017-07-21T06:38:44.281Z,1002.5
2017-07-21T06:39:45.693Z,1002.5
2017-07-21T06:40:47.097Z,1002.5
2017-07-21T06:41:48.504Z,1002.5
2017-07-21T06:42:49.913Z,1002.5
2017-07-21T06:43:51.326Z,1002.5
2017-07-21T06:44:52.735Z,1002.5
2017-07-21T06:45:54.136Z,1002.5
2017-07-21T06:46:55.543Z,1002.5
2017-07-21T06:47:56.943Z,1002.5
2017-07-21T06:48:58.354Z,1002.5
2017-07-21T06:49:59.769Z,1002.5
2017-07-21T06:51:01.191Z,1002.5
2017-07-21T06:52:02.635Z,1002.5
2017-07-21T06:53:04.041Z,1002.5
2017-07-21T06:54:05.446Z,1002.5
2017-07-21T06:55:06.848Z,1002.5
2017-07-21T06:56:08.253Z,1002.4
2017-07-21T06:57:09.660Z,1002.4
2017-07-21T06:58:11.058Z,1002.5
2017-07-21T06:59:12.473Z,1002.5
2017-07-21T07:00:13.886Z,1002.5
2017-07-21T07:01:15.242Z,1002.5
2017-07-21T07:02:16.658Z,1002.6
2017-07-21T07:03:18.064Z,1002.5
2017-07-21T07:04:19.463Z,1002.5
2017-07-21T07:05:20.875Z,1002.5
2017-07-21T07:06:22.282Z,1002.5
2017-07-21T07:07:23.686Z,1002.5
2017-07-21T07:08:25.092Z,1002.5
2017-07-21T07:09:26.494Z,1002.6
2017-07-21T07:10:27.894Z,1002.5
2017-07-21T07:11:29.295Z,1002.5
2017-07-21T07:12:30.709Z,1002.6
2017-07-21T07:13:32.111Z,1002.6
2017-07-21T07:14:33.513Z,1002.6
2017-07-21T07:15:34.919Z,1002.6
2017-07-21T07:16:36.329Z,1002.6
2017-07-21T07:17:37.738Z,1002.5
2017-07-21T07:18:39.137Z,1002.5
2017-07-21T07:19:40.551Z,1002.5
2017-07-21T07:20:41.954Z,1002.5
2017-07-21T07:21:43.369Z,1002.6
2017-07-21T07:22:44.776Z,1002.5
2017-07-21T07:23:46.179Z,1002.6
2017-07-21T07:24:47.585Z,1002.5
2017-07-21T07:25:48.993Z,1002.5
2017-07-21T07:26:50.402Z,1002.5
2017-07-21T07:27:51.841Z,1002.5
2017-07-21T07:28:53.243Z,1002.5
2017-07-21T07:29:54.648Z,1002.5
2017-07-21T07:30:56.050Z,1002.5
2017-07-21T07:31:57.455Z,1002.5
2017-07-21T07:32:58.867Z,1002.5
2017-07-21T07:34:00.277Z,1002.5
2017-07-21T07:35:01.693Z,1002.5
2017-07-21T07:36:03.099Z,1002.4
2017-07-21T07:37:04.503Z,1002.5
2017-07-21T07:38:05.912Z,1002.5
2017-07-21T07:39:07.326Z,1002.5
2017-07-21T07:40:08.729Z,1002.5
2017-07-21T07:41:10.139Z,1002.5
2017-07-21T07:42:11.547Z,1002.5
2017-07-21T07:43:12.989Z,1002.5
2017-07-21T07:44:15.874Z,1002.5
2017-07-21T07:45:17.292Z,1002.5
2017-07-21T07:46:18.684Z,1002.5
2017-07-21T07:47:20.090Z,1002.5
2017-07-21T07:48:21.497Z,1002.4
2017-07-21T07:49:22.903Z,1002.4
2017-07-21T07:50:24.309Z,1002.4
2017-07-21T07:51:25.710Z,1002.5
2017-07-21T07:52:27.117Z,1002.5
2017-07-21T07:53:28.529Z,1002.4
2017-07-21T07:54:29.935Z,1002.4
2017-07-21T07:55:31.343Z,1002.5
2017-07-21T07:56:32.752Z,1002.5
2017-07-21T07:57:34.161Z,1002.4
2017-07-21T07:58:35.570Z,1002.5
2017-07-21T07:59:36.976Z,1002.5
2017-07-21T08:00:38.383Z,1002.5
2017-07-21T08:01:39.796Z,1002.4
2017-07-21T08:02:41.207Z,1002.5
2017-07-21T08:03:42.630Z,1002.5
2017-07-21T08:04:44.037Z,1002.5
2017-07-21T08:05:45.442Z,1002.5
2017-07-21T08:06:46.848Z,1002.5
2017-07-21T08:07:48.251Z,1002.5
2017-07-21T08:08:49.711Z,1002.5
2017-07-21T08:09:51.111Z,1002.5
2017-07-21T08:10:52.514Z,1002.5
2017-07-21T08:11:53.925Z,1002.4
2017-07-21T08:12:55.333Z,1002.5
2017-07-21T08:13:56.742Z,1002.4
2017-07-21T08:14:58.151Z,1002.5
2017-07-21T08:15:59.557Z,1002.4
2017-07-21T08:17:00.970Z,1002.5
2017-07-21T08:18:02.380Z,1002.5
2017-07-21T08:19:03.790Z,1002.5
2017-07-21T08:20:05.202Z,1002.5
2017-07-21T08:21:06.603Z,1002.5
2017-07-21T08:22:08.028Z,1002.5
2017-07-21T08:23:09.452Z,1002.5
2017-07-21T08:24:10.862Z,1002.5
2017-07-21T08:25:12.272Z,1002.5
2017-07-21T08:26:13.684Z,1002.5
2017-07-21T08:27:15.090Z,1002.4
2017-07-21T08:28:16.534Z,1002.4
2017-07-21T08:29:17.955Z,1002.5
2017-07-21T08:30:19.367Z,1002.5
2017-07-21T08:31:20.780Z,1002.4
2017-07-21T08:32:22.189Z,1002.4
2017-07-21T08:33:23.591Z,1002.4
2017-07-21T08:34:25.006Z,1002.4
2017-07-21T08:35:26.439Z,1002.4
2017-07-21T08:36:27.848Z,1002.4
2017-07-21T08:37:29.260Z,1002.3
2017-07-21T08:38:30.673Z,1002.4
2017-07-21T08:39:32.078Z,1002.4
2017-07-21T08:40:33.484Z,1002.4
2017-07-21T08:41:34.891Z,1002.3
2017-07-21T08:42:36.302Z,1002.4
2017-07-21T08:43:37.717Z,1002.4
2017-07-21T08:44:39.127Z,1002.4
2017-07-21T08:45:40.543Z,1002.3
2017-07-21T08:46:41.942Z,1002.4
2017-07-21T08:47:43.355Z,1002.4
2017-07-21T08:48:44.768Z,1002.4
2017-07-21T08:49:46.231Z,1002.4
2017-07-21T08:50:47.680Z,1002.4
2017-07-21T08:51:49.092Z,1002.4
2017-07-21T08:52:50.505Z,1002.4
2017-07-21T08:53:51.912Z,1002.4
2017-07-21T08:54:53.327Z,1002.4
2017-07-21T08:55:54.734Z,1002.4
2017-07-21T08:56:56.140Z,1002.3
2017-07-21T08:57:57.570Z,1002.3
2017-07-21T08:58:58.976Z,1002.3
2017-07-21T09:00:00.396Z,1002.3
2017-07-21T09:01:01.800Z,1002.3
2017-07-21T09:02:03.209Z,1002.3
2017-07-21T09:03:04.619Z,1002.3
2017-07-21T09:04:06.030Z,1002.3
2017-07-21T09:05:07.442Z,1002.3
2017-07-21T09:06:08.851Z,1002.3
2017-07-21T09:07:10.260Z,1002.3
2017-07-21T09:08:11.666Z,1002.3
2017-07-21T09:09:13.089Z,1002.3
2017-07-21T09:10:14.498Z,1002.3
2017-07-21T09:11:15.905Z,1002.3
2017-07-21T09:12:17.314Z,1002.3
2017-07-21T09:13:18.729Z,1002.3
2017-07-21T09:14:20.147Z,1002.2
2017-07-21T09:15:21.546Z,1002.2
2017-07-21T09:16:22.949Z,1002.2
2017-07-21T09:17:24.360Z,1002.2
2017-07-21T09:18:25.770Z,1002.1
2017-07-21T09:19:27.182Z,1002.1
2017-07-21T09:20:28.591Z,1002.2
2017-07-21T09:21:30.001Z,1002.2
2017-07-21T09:22:31.410Z,1002.2
2017-07-21T09:23:32.820Z,1002.1
2017-07-21T09:24:34.224Z,1002.1
2017-07-21T09:25:35.646Z,1002.1
2017-07-21T09:26:37.059Z,1002.1
2017-07-21T09:27:38.470Z,1002.1
2017-07-21T09:28:39.876Z,1002.1
2017-07-21T09:29:41.281Z,1002.1
2017-07-21T09:30:42.690Z,1002.1
2017-07-21T09:31:44.097Z,1002.1
2017-07-21T09:32:45.511Z,1002.1
2017-07-21T09:33:46.918Z,1002.0
2017-07-21T09:34:48.335Z,1002.0
2017-07-21T09:35:49.741Z,1002.0
2017-07-21T09:36:51.154Z,1002.0
2017-07-21T09:37:52.556Z,1002.0
2017-07-21T09:38:53.968Z,1001.9
2017-07-21T09:39:55.377Z,1002.0
2017-07-21T09:40:56.789Z,1002.0
2017-07-21T09:41:58.696Z,1002.0
2017-07-21T09:43:00.110Z,1001.9
2017-07-21T09:44:01.543Z,1002.0
2017-07-21T09:45:02.970Z,1001.9
2017-07-21T09:46:04.379Z,1001.9
2017-07-21T09:47:05.796Z,1001.9
2017-07-21T09:48:07.208Z,1001.9
2017-07-21T09:49:08.623Z,1001.9
2017-07-21T09:50:10.032Z,1001.9
2017-07-21T09:51:11.440Z,1001.9
2017-07-21T09:52:12.846Z,1001.9
2017-07-21T09:53:14.267Z,1001.9
2017-07-21T09:54:15.682Z,1001.9
2017-07-21T09:55:17.098Z,1001.9
2017-07-21T09:56:18.507Z,1001.9
2017-07-21T09:57:19.921Z,1001.9
2017-07-21T09:58:21.325Z,1001.8
2017-07-21T09:59:22.738Z,1001.8
2017-07-21T10:00:24.141Z,1001.8
2017-07-21T10:01:25.553Z,1001.8
2017-07-21T10:02:26.965Z,1001.8
2017-07-21T10:03:28.379Z,1001.7
2017-07-21T10:04:29.793Z,1001.8
2017-07-21T10:05:31.200Z,1001.7
2017-07-21T10:06:32.602Z,1001.8
2017-07-21T10:07:34.013Z,1001.7
2017-07-21T10:08:35.430Z,1001.7
2017-07-21T10:09:36.845Z,1001.7
2017-07-21T10:10:38.256Z,1001.7
2017-07-21T10:11:39.664Z,1001.7
2017-07-21T10:12:41.069Z,1001.7
2017-07-21T10:13:42.482Z,1001.7
2017-07-21T10:14:43.898Z,1001.7
2017-07-21T10:15:45.304Z,1001.7
2017-07-21T10:16:46.714Z,1001.7
2017-07-21T10:17:48.121Z,1001.7
2017-07-21T10:18:49.536Z,1001.7
2017-07-21T10:19:50.943Z,1001.7
2017-07-21T10:20:52.349Z,1001.6
2017-07-21T10:21:53.769Z,1001.7
2017-07-21T10:22:55.173Z,1001.7
2017-07-21T10:23:56.586Z,1001.7
2017-07-21T10:24:58.010Z,1001.6
2017-07-21T10:25:59.419Z,1001.6
2017-07-21T10:27:00.828Z,1001.6
2017-07-21T10:28:02.234Z,1001.6
2017-07-21T10:29:03.648Z,1001.5
2017-07-21T10:30:05.063Z,1001.6
2017-07-21T10:31:06.472Z,1001.6
2017-07-21T10:32:07.891Z,1001.6
2017-07-21T10:33:09.349Z,1001.6
2017-07-21T10:34:10.753Z,1001.6
2017-07-21T10:35:12.162Z,1001.6
2017-07-21T10:36:13.612Z,1001.6
2017-07-21T10:37:15.030Z,1001.5
2017-07-21T10:38:16.443Z,1001.6
2017-07-21T10:39:17.855Z,1001.6
2017-07-21T10:40:19.263Z,1001.5
2017-07-21T10:41:20.681Z,1001.5
2017-07-21T10:42:22.095Z,1001.4
2017-07-21T10:43:23.516Z,1001.4
2017-07-21T10:44:24.929Z,1001.5
2017-07-21T10:45:27.061Z,1001.4
2017-07-21T10:46:28.478Z,1001.5
2017-07-21T10:47:29.890Z,1001.5
2017-07-21T10:48:31.298Z,1001.5
2017-07-21T10:49:32.705Z,1001.4
2017-07-21T10:50:34.125Z,1001.5
2017-07-21T10:51:35.542Z,1001.5
2017-07-21T10:52:36.953Z,1001.4
2017-07-21T10:53:38.370Z,1001.4
2017-07-21T10:54:39.783Z,1001.4
2017-07-21T10:55:41.198Z,1001.4
2017-07-21T10:56:42.608Z,1001.4
2017-07-21T10:57:44.020Z,1001.3
2017-07-21T10:58:45.434Z,1001.3
2017-07-21T10:59:46.856Z,1001.3
2017-07-21T11:00:48.262Z,1001.3
2017-07-21T11:01:49.677Z,1001.3
2017-07-21T11:02:51.088Z,1001.3
2017-07-21T11:03:52.500Z,1001.2
2017-07-21T11:04:53.921Z,1001.2
2017-07-21T11:05:55.332Z,1001.2
2017-07-21T11:06:56.746Z,1001.3
2017-07-21T11:07:58.127Z,1001.3
2017-07-21T11:08:59.540Z,1001.2
2017-07-21T11:10:00.959Z,1001.2
2017-07-21T11:11:02.370Z,1001.2
2017-07-21T11:12:03.786Z,1001.2
2017-07-21T11:13:05.199Z,1001.2
2017-07-21T11:14:06.618Z,1001.1
2017-07-21T11:15:08.029Z,1001.1
2017-07-21T11:16:09.446Z,1001.1
2017-07-21T11:17:10.859Z,1001.1
2017-07-21T11:18:12.273Z,1001.1
2017-07-21T11:19:13.695Z,1001.1
2017-07-21T11:20:15.107Z,1001.1
2017-07-21T11:21:16.523Z,1001.1
2017-07-21T11:22:17.937Z,1001.0
2017-07-21T11:23:19.353Z,1001.0
2017-07-21T11:24:20.767Z,1001.0
2017-07-21T11:25:22.180Z,1001.1
2017-07-21T11:26:23.590Z,1001.1
2017-07-21T11:27:25.009Z,1001.0
2017-07-21T11:28:26.422Z,1001.0
2017-07-21T11:29:27.850Z,1001.0
2017-07-21T11:30:29.274Z,1001.0
2017-07-21T11:31:30.686Z,1000.9
2017-07-21T11:32:32.182Z,1001.0
2017-07-21T11:33:33.632Z,1001.0
2017-07-21T11:34:35.034Z,1001.0
2017-07-21T11:35:36.451Z,1000.8
2017-07-21T11:36:37.871Z,1000.8
2017-07-21T11:37:39.289Z,1000.9
2017-07-21T11:38:40.706Z,1000.9
2017-07-21T11:39:42.124Z,1000.9
2017-07-21T11:40:43.545Z,1001.0
2017-07-21T11:41:44.950Z,1000.8
2017-07-21T11:42:46.379Z,1000.9
2017-07-21T11:43:47.797Z,1001.0
2017-07-21T11:44:49.214Z,1000.9
2017-07-21T11:45:50.664Z,1000.9
2017-07-21T11:46:52.083Z,1001.0
2017-07-21T11:47:53.502Z,1000.8
2017-07-21T11:48:54.918Z,1000.9
2017-07-21T11:49:56.335Z,1000.8
2017-07-21T11:50:57.822Z,1000.8
2017-07-21T11:51:59.256Z,1000.9
2017-07-21T11:53:00.672Z,1000.9
2017-07-21T11:54:02.095Z,1000.9
2017-07-21T11:55:03.515Z,1000.8
2017-07-21T11:56:04.945Z,1000.8
2017-07-21T11:57:06.372Z,1000.8
2017-07-21T11:58:07.798Z,1000.8
2017-07-21T11:59:09.263Z,1000.8
2017-07-21T12:00:10.681Z,1000.7
2017-07-21T12:01:12.858Z,1000.6
2017-07-21T12:02:14.368Z,1000.6
2017-07-21T12:03:16.064Z,1000.7
2017-07-21T12:04:17.507Z,1000.7
2017-07-21T12:05:18.932Z,1000.7
2017-07-21T12:06:20.348Z,1000.7
2017-07-21T12:07:21.851Z,1000.7
2017-07-21T12:08:23.375Z,1000.7
2017-07-21T12:09:24.829Z,1000.6
2017-07-21T12:10:26.279Z,1000.6
2017-07-21T12:11:27.900Z,1000.6
2017-07-21T12:12:29.392Z,1000.5
2017-07-21T12:13:30.819Z,1000.6
2017-07-21T12:14:32.404Z,1000.6
2017-07-21T12:15:33.907Z,1000.6
2017-07-21T12:16:35.369Z,1000.6
2017-07-21T12:17:36.823Z,1000.7
2017-07-21T12:18:38.252Z,1000.6
2017-07-21T12:19:39.895Z,1000.6
2017-07-21T12:20:41.649Z,1000.6
2017-07-21T12:21:43.113Z,1000.6
2017-07-21T12:22:44.680Z,1000.6
2017-07-21T12:23:46.454Z,1000.6
2017-07-21T12:24:48.031Z,1000.6
2017-07-21T12:25:49.505Z,1000.6
2017-07-21T12:26:51.835Z,1000.6
2017-07-21T12:27:53.382Z,1000.5
2017-07-21T12:28:54.794Z,1000.5
2017-07-21T12:29:56.211Z,1000.5
2017-07-21T12:30:57.626Z,1000.5
2017-07-21T12:31:59.052Z,1000.5
2017-07-21T12:33:00.484Z,1000.5
2017-07-21T12:34:01.924Z,1000.5
2017-07-21T12:35:03.333Z,1000.5
2017-07-21T12:36:04.757Z,1000.4
2017-07-21T12:37:06.283Z,1000.5
2017-07-21T12:38:07.711Z,1000.5
2017-07-21T12:39:09.133Z,1000.4
2017-07-21T12:40:10.567Z,1000.4
2017-07-21T12:41:12.793Z,1000.4
2017-07-21T12:42:14.393Z,1000.4
2017-07-21T12:43:15.822Z,1000.4
2017-07-21T12:44:17.238Z,1000.4
2017-07-21T12:45:18.763Z,1000.3
2017-07-21T12:46:20.204Z,1000.4